createdAt,value
2023-06-04T00:02:15.902Z,41.57
2023-06-04T00:04:42.480Z,42.21
2023-06-04T00:07:08.897Z,42.08
2023-06-04T00:09:35.245Z,42.09
2023-06-04T00:12:01.691Z,42.63
2023-06-04T00:14:28.197Z,42.43
2023-06-04T00:16:54.599Z,42.07
2023-06-04T00:19:21.330Z,42.14
2023-06-04T00:21:47.687Z,42.64
2023-06-04T00:24:14.253Z,42.44
2023-06-04T00:26:40.863Z,42.62
2023-06-04T00:29:07.212Z,42.79
2023-06-04T00:31:33.724Z,43.03
2023-06-04T00:34:00.204Z,42.86
2023-06-04T00:36:26.553Z,42.92
2023-06-04T00:38:52.918Z,42.91
2023-06-04T00:41:19.241Z,43.00
2023-06-04T00:43:45.681Z,42.91
2023-06-04T00:46:13.212Z,43.06
2023-06-04T00:48:39.570Z,44.24
2023-06-04T00:51:06.869Z,43.79
2023-06-04T00:53:33.382Z,43.97
2023-06-04T00:55:59.802Z,43.91
2023-06-04T00:58:26.373Z,43.36
2023-06-04T01:00:56.050Z,43.38
2023-06-04T01:03:26.554Z,43.56
2023-06-04T01:06:26.950Z,44.38
2023-06-04T01:08:54.859Z,44.40
2023-06-04T01:11:38.994Z,47.71
2023-06-04T01:14:07.007Z,45.19
2023-06-04T01:16:42.063Z,45.62
2023-06-04T01:19:33.194Z,47.39
2023-06-04T01:22:10.290Z,46.81
2023-06-04T01:24:40.302Z,45.44
2023-06-04T01:27:07.201Z,46.44
2023-06-04T01:29:33.966Z,46.78
2023-06-04T01:32:00.741Z,46.52
2023-06-04T01:34:27.173Z,46.84
2023-06-04T01:36:53.503Z,47.18
2023-06-04T01:39:19.899Z,47.22
2023-06-04T01:41:46.225Z,48.27
2023-06-04T01:44:12.715Z,47.46
2023-06-04T01:46:39.067Z,48.04
2023-06-04T01:49:05.466Z,48.06
2023-06-04T01:51:31.905Z,47.38
2023-06-04T01:53:58.277Z,48.22
2023-06-04T01:56:24.639Z,48.44
2023-06-04T01:58:51.133Z,48.42
2023-06-04T02:01:17.508Z,48.76
2023-06-04T02:03:43.947Z,48.59
2023-06-04T02:06:10.525Z,49.79
2023-06-04T02:08:36.865Z,50.15
2023-06-04T02:11:03.286Z,50.33
2023-06-04T02:13:29.891Z,50.51
2023-06-04T02:15:56.254Z,50.25
2023-06-04T02:18:22.629Z,50.53
2023-06-04T02:20:50.577Z,49.76
2023-06-04T02:23:19.103Z,50.27
2023-06-04T02:25:46.483Z,50.57
2023-06-04T02:28:13.834Z,52.40
2023-06-04T02:30:40.408Z,51.89
2023-06-04T02:33:06.809Z,52.68
2023-06-04T02:35:33.216Z,52.39
2023-06-04T02:37:59.721Z,51.81
2023-06-04T02:40:26.529Z,51.40
2023-06-04T02:42:54.006Z,51.44
2023-06-04T02:45:20.598Z,52.48
2023-06-04T02:47:47.245Z,51.82
2023-06-04T02:50:15.070Z,51.32
2023-06-04T02:52:43.890Z,51.99
2023-06-04T02:55:11.321Z,51.96
2023-06-04T02:57:37.761Z,51.96
2023-06-04T03:00:05.024Z,51.47
2023-06-04T03:02:31.402Z,52.14
2023-06-04T03:04:57.746Z,52.11
2023-06-04T03:07:24.201Z,52.38
2023-06-04T03:09:51.034Z,52.27
2023-06-04T03:12:17.584Z,52.78
2023-06-04T03:14:43.903Z,52.98
2023-06-04T03:17:10.231Z,53.02
2023-06-04T03:19:38.028Z,53.52
2023-06-04T03:22:06.069Z,54.43
2023-06-04T03:24:37.551Z,55.47
2023-06-04T03:27:04.947Z,56.34
2023-06-04T03:29:32.474Z,55.31
2023-06-04T03:31:59.207Z,55.14
2023-06-04T03:34:25.544Z,54.38
2023-06-04T03:36:55.771Z,54.98
2023-06-04T03:39:22.490Z,54.94
2023-06-04T03:41:49.280Z,55.54
2023-06-04T03:44:16.910Z,55.00
2023-06-04T03:46:44.797Z,54.51
2023-06-04T03:49:11.869Z,54.38
2023-06-04T03:51:39.023Z,55.06
2023-06-04T03:54:05.667Z,54.91
2023-06-04T03:56:32.484Z,55.48
2023-06-04T03:58:59.056Z,56.18
2023-06-04T04:01:25.450Z,55.15
2023-06-04T04:03:52.434Z,54.99
2023-06-04T04:06:19.952Z,53.63
2023-06-04T04:08:46.230Z,52.25
2023-06-04T04:11:13.985Z,51.66
2023-06-04T04:13:40.602Z,51.17
2023-06-04T04:16:07.057Z,50.48
2023-06-04T04:18:37.402Z,50.06
2023-06-04T04:21:05.046Z,49.14
2023-06-04T04:23:32.277Z,48.00
2023-06-04T04:26:01.632Z,47.03
2023-06-04T04:28:28.020Z,46.93
2023-06-04T04:30:54.493Z,46.52
2023-06-04T04:33:20.896Z,45.31
2023-06-04T04:35:47.322Z,44.65
2023-06-04T04:38:13.766Z,44.29
2023-06-04T04:40:40.089Z,44.05
2023-06-04T04:43:06.467Z,43.03
2023-06-04T04:45:32.800Z,43.04
2023-06-04T04:47:59.170Z,43.76
2023-06-04T04:50:25.559Z,44.46
2023-06-04T04:52:51.988Z,45.24
2023-06-04T04:55:18.344Z,45.84
2023-06-04T04:57:44.701Z,46.38
2023-06-04T05:00:11.623Z,46.89
2023-06-04T05:02:38.029Z,47.27
2023-06-04T05:05:05.162Z,47.56
2023-06-04T05:07:31.587Z,48.15
2023-06-04T05:09:57.920Z,48.02
2023-06-04T05:12:26.557Z,48.94
2023-06-04T05:14:54.040Z,48.83
2023-06-04T05:17:20.422Z,48.92
2023-06-04T05:19:46.774Z,49.16
2023-06-04T05:22:13.148Z,49.48
2023-06-04T05:24:39.515Z,49.20
2023-06-04T05:27:05.933Z,48.85
2023-06-04T05:29:32.285Z,48.66
2023-06-04T05:31:58.690Z,48.52
2023-06-04T05:34:25.285Z,48.08
2023-06-04T05:36:51.615Z,48.07
2023-06-04T05:39:17.973Z,47.88
2023-06-04T05:41:44.306Z,47.75
2023-06-04T05:44:10.652Z,47.15
2023-06-04T05:46:36.996Z,46.61
2023-06-04T05:49:03.470Z,46.30
2023-06-04T05:51:29.846Z,46.42
2023-06-04T05:53:56.157Z,45.98
2023-06-04T05:56:22.477Z,45.89
2023-06-04T05:58:52.946Z,45.83
2023-06-04T06:01:19.353Z,44.87
2023-06-04T06:03:45.802Z,44.64
2023-06-04T06:06:12.163Z,44.64
2023-06-04T06:08:38.492Z,44.66
2023-06-04T06:11:05.732Z,44.34
2023-06-04T06:13:32.958Z,43.40
2023-06-04T06:15:59.338Z,42.50
2023-06-04T06:18:25.711Z,42.23
2023-06-04T06:20:52.023Z,42.38
2023-06-04T06:23:18.490Z,40.52
2023-06-04T06:25:44.996Z,40.54
2023-06-04T06:28:11.311Z,40.53
2023-06-04T06:30:37.614Z,41.75
2023-06-04T06:33:04.044Z,40.70
2023-06-04T06:35:30.397Z,39.97
2023-06-04T06:37:56.744Z,40.75
2023-06-04T06:40:23.238Z,40.82
2023-06-04T06:42:50.480Z,40.26
2023-06-04T06:45:16.764Z,40.48
2023-06-04T06:47:43.177Z,40.61
2023-06-04T06:50:09.740Z,40.25
2023-06-04T06:52:36.039Z,38.63
2023-06-04T06:55:02.471Z,38.87
2023-06-04T06:57:28.808Z,39.24
2023-06-04T06:59:55.118Z,39.05
2023-06-04T07:02:21.647Z,38.78
2023-06-04T07:04:48.491Z,39.01
2023-06-04T07:07:15.804Z,38.89
2023-06-04T07:09:44.303Z,38.86
2023-06-04T07:12:10.647Z,39.09
2023-06-04T07:14:36.973Z,38.85
2023-06-04T07:17:03.554Z,38.67
2023-06-04T07:19:29.956Z,38.36
2023-06-04T07:21:56.274Z,38.70
2023-06-04T07:24:23.016Z,38.00
2023-06-04T07:26:49.393Z,38.68
2023-06-04T07:29:15.824Z,38.68
2023-06-04T07:31:42.982Z,38.30
2023-06-04T07:34:09.253Z,37.63
2023-06-04T07:36:35.639Z,38.20
2023-06-04T07:39:02.009Z,38.25
2023-06-04T07:41:28.337Z,38.39
2023-06-04T07:43:54.674Z,36.77
2023-06-04T07:46:21.241Z,36.81
2023-06-04T07:48:47.684Z,36.54
2023-06-04T07:51:14.556Z,37.27
2023-06-04T07:53:41.704Z,36.95
2023-06-04T07:56:08.061Z,36.71
2023-06-04T07:58:34.381Z,36.79
2023-06-04T08:01:00.703Z,36.87
2023-06-04T08:03:27.171Z,37.30
2023-06-04T08:05:53.761Z,37.19
2023-06-04T08:08:20.140Z,36.49
2023-06-04T08:10:46.601Z,36.39
2023-06-04T08:13:12.949Z,36.06
2023-06-04T08:15:39.295Z,36.04
2023-06-04T08:18:05.781Z,35.83
2023-06-04T08:20:32.195Z,35.68
2023-06-04T08:22:58.634Z,36.08
2023-06-04T08:25:24.975Z,36.29
2023-06-04T08:27:51.313Z,36.09
2023-06-04T08:30:17.756Z,35.59
2023-06-04T08:32:44.392Z,35.77
2023-06-04T08:35:10.765Z,35.81
2023-06-04T08:37:37.256Z,35.30
2023-06-04T08:40:03.890Z,34.42
2023-06-04T08:42:32.107Z,33.94
2023-06-04T08:44:59.349Z,33.19
2023-06-04T08:47:26.515Z,33.17
2023-06-04T08:49:55.636Z,33.65
2023-06-04T08:52:22.148Z,33.18
2023-06-04T08:54:52.244Z,33.49
2023-06-04T08:57:19.908Z,33.48
2023-06-04T08:59:47.411Z,33.49
2023-06-04T09:02:15.517Z,32.71
2023-06-04T09:04:45.646Z,31.90
2023-06-04T09:07:14.113Z,31.31
2023-06-04T09:09:42.925Z,32.01
2023-06-04T09:12:22.533Z,31.14
2023-06-04T09:14:49.220Z,32.27
2023-06-04T09:17:15.537Z,32.07
2023-06-04T09:19:41.902Z,32.06
2023-06-04T09:22:08.301Z,31.52
2023-06-04T09:24:41.610Z,31.57
2023-06-04T09:27:15.356Z,32.06
2023-06-04T09:30:02.045Z,31.06
2023-06-04T09:32:31.250Z,31.82
2023-06-04T09:35:12.900Z,32.56
2023-06-04T09:37:44.126Z,32.39
2023-06-04T09:40:11.053Z,31.90
2023-06-04T09:42:45.125Z,32.01
2023-06-04T09:45:12.088Z,31.31
2023-06-04T09:47:42.381Z,30.77
2023-06-04T09:50:09.571Z,31.99
2023-06-04T09:52:36.018Z,32.44
2023-06-04T09:55:02.358Z,32.27
2023-06-04T09:57:30.295Z,32.38
2023-06-04T09:59:57.882Z,31.92
2023-06-04T10:02:28.072Z,31.76
2023-06-04T10:04:55.974Z,31.37
2023-06-04T10:07:24.629Z,31.05
2023-06-04T10:09:52.602Z,31.19
2023-06-04T10:12:26.542Z,29.34
2023-06-04T10:15:12.184Z,29.29
2023-06-04T10:17:38.765Z,30.09
2023-06-04T10:20:05.809Z,29.51
2023-06-04T10:22:32.948Z,29.25
2023-06-04T10:25:00.211Z,28.86
2023-06-04T10:27:26.742Z,29.17
2023-06-04T10:29:53.612Z,29.60
2023-06-04T10:32:20.450Z,29.86
2023-06-04T10:34:47.943Z,30.49
2023-06-04T10:37:21.984Z,30.14
2023-06-04T10:42:18.583Z,29.58
2023-06-04T10:44:49.882Z,29.60
2023-06-04T10:47:23.769Z,29.42
2023-06-04T10:49:55.285Z,29.01
2023-06-04T10:52:24.639Z,28.80
2023-06-04T10:54:51.008Z,28.27
2023-06-04T10:57:19.060Z,27.53
2023-06-04T10:59:55.862Z,27.56
2023-06-04T11:02:22.339Z,27.21
2023-06-04T11:05:00.094Z,27.25
2023-06-04T11:07:26.672Z,28.29
2023-06-04T11:09:53.337Z,27.49
2023-06-04T11:12:19.775Z,27.93
2023-06-04T11:14:59.601Z,28.18
2023-06-04T11:17:26.079Z,27.87
2023-06-04T11:19:52.451Z,27.44
2023-06-04T11:22:18.794Z,27.87
2023-06-04T11:24:45.378Z,26.99
2023-06-04T11:27:20.747Z,27.66
2023-06-04T11:29:54.889Z,27.30
2023-06-04T11:32:24.815Z,27.49
2023-06-04T11:34:51.356Z,26.80
2023-06-04T11:37:17.710Z,26.89
2023-06-04T11:39:44.043Z,26.75
2023-06-04T11:42:10.931Z,26.26
2023-06-04T11:44:37.226Z,27.08
2023-06-04T11:47:09.508Z,26.11
2023-06-04T11:49:37.244Z,26.77
2023-06-04T11:52:04.791Z,27.32
2023-06-04T11:54:31.275Z,26.56
2023-06-04T11:56:58.039Z,27.18
2023-06-04T11:59:24.611Z,26.82
2023-06-04T12:01:51.137Z,26.87
2023-06-04T12:04:19.641Z,25.57
2023-06-04T12:06:59.543Z,25.80
2023-06-04T12:09:29.812Z,25.96
2023-06-04T12:12:00.277Z,25.81
2023-06-04T12:14:29.301Z,26.07
2023-06-04T12:16:56.684Z,26.59
2023-06-04T12:19:23.443Z,26.07
2023-06-04T12:22:00.756Z,26.16
2023-06-04T12:24:27.242Z,26.34
2023-06-04T12:27:02.566Z,25.15
2023-06-04T12:29:29.169Z,25.63
2023-06-04T12:32:04.013Z,24.74
2023-06-04T12:34:30.688Z,24.57
2023-06-04T12:36:57.038Z,24.39
2023-06-04T12:39:23.495Z,24.47
2023-06-04T12:41:50.070Z,23.74
2023-06-04T12:44:16.444Z,24.34
2023-06-04T12:46:42.934Z,22.98
2023-06-04T12:49:09.413Z,23.96
2023-06-04T12:51:35.750Z,23.15
2023-06-04T12:54:02.124Z,22.98
2023-06-04T12:56:28.596Z,23.21
2023-06-04T12:58:54.949Z,22.25
2023-06-04T13:01:21.384Z,22.09
2023-06-04T13:03:47.898Z,23.39
2023-06-04T13:06:14.565Z,23.26
2023-06-04T13:08:41.079Z,23.47
2023-06-04T13:11:07.685Z,23.35
2023-06-04T13:13:34.299Z,24.02
2023-06-04T13:16:00.713Z,24.15
2023-06-04T13:18:27.335Z,22.23
2023-06-04T13:20:53.754Z,22.50
2023-06-04T13:23:20.162Z,23.16
2023-06-04T13:25:46.616Z,22.59
2023-06-04T13:28:12.995Z,23.67
2023-06-04T13:30:39.944Z,22.95
2023-06-04T13:33:07.106Z,23.11
2023-06-04T13:35:33.867Z,22.20
2023-06-04T13:38:00.273Z,22.01
2023-06-04T13:40:26.870Z,22.61
2023-06-04T13:42:53.194Z,22.44
2023-06-04T13:45:19.634Z,21.97
2023-06-04T13:47:46.275Z,23.01
2023-06-04T13:50:12.713Z,22.08
2023-06-04T13:52:39.133Z,22.62
2023-06-04T13:55:05.919Z,21.91
2023-06-04T13:57:32.193Z,22.06
2023-06-04T13:59:58.566Z,22.90
2023-06-04T14:02:25.179Z,22.28
2023-06-04T14:04:53.549Z,23.26
2023-06-04T14:07:20.480Z,23.18
2023-06-04T14:09:46.837Z,22.04
2023-06-04T14:12:13.278Z,22.63
2023-06-04T14:14:39.634Z,21.87
2023-06-04T14:17:06.754Z,22.39
2023-06-04T14:19:33.962Z,22.03
2023-06-04T14:22:00.322Z,22.04
2023-06-04T14:24:26.806Z,22.17
2023-06-04T14:26:53.146Z,22.42
2023-06-04T14:29:19.501Z,22.62
2023-06-04T14:31:45.894Z,22.33
2023-06-04T14:34:12.444Z,22.61
2023-06-04T14:36:38.789Z,22.53
2023-06-04T14:39:05.129Z,23.01
2023-06-04T14:41:31.484Z,22.84
2023-06-04T14:43:57.861Z,22.41
2023-06-04T14:46:24.209Z,22.68
2023-06-04T14:48:50.577Z,22.90
2023-06-04T14:51:16.979Z,22.88
2023-06-04T14:53:43.321Z,23.01
2023-06-04T14:56:09.761Z,22.85
2023-06-04T14:58:36.108Z,22.79
2023-06-04T15:01:02.610Z,22.86
2023-06-04T15:03:29.042Z,23.03
2023-06-04T15:06:03.519Z,23.05
2023-06-04T15:08:37.385Z,22.70
2023-06-04T15:11:03.814Z,22.70
2023-06-04T15:13:30.223Z,21.77
2023-06-04T15:15:56.582Z,22.50
2023-06-04T15:18:23.009Z,22.32
2023-06-04T15:20:49.443Z,22.59
2023-06-04T15:23:15.766Z,21.25
2023-06-04T15:25:42.066Z,21.62
2023-06-04T15:28:08.503Z,20.87
2023-06-04T15:30:34.938Z,21.03
2023-06-04T15:33:01.404Z,21.57
2023-06-04T15:35:28.016Z,20.97
2023-06-04T15:37:54.596Z,21.42
2023-06-04T15:40:21.071Z,20.39
2023-06-04T15:42:47.440Z,21.24
2023-06-04T15:45:14.118Z,20.83
2023-06-04T15:47:40.518Z,20.87
2023-06-04T15:50:07.528Z,20.79
2023-06-04T15:52:33.849Z,21.01
2023-06-04T15:55:00.186Z,21.01
2023-06-04T15:57:26.623Z,20.34
2023-06-04T15:59:53.025Z,20.04
2023-06-04T16:02:19.481Z,19.47
2023-06-04T16:04:45.842Z,19.30
2023-06-04T16:07:12.189Z,19.42
2023-06-04T16:09:38.632Z,19.57
2023-06-04T16:12:05.226Z,19.37
2023-06-04T16:14:31.617Z,18.00
2023-06-04T16:16:58.072Z,18.50
2023-06-04T16:19:24.471Z,19.55
2023-06-04T16:21:50.882Z,18.71
2023-06-04T16:24:17.499Z,18.32
2023-06-04T16:26:43.917Z,18.02
2023-06-04T16:29:10.236Z,17.58
2023-06-04T16:31:36.595Z,17.81
2023-06-04T16:34:03.289Z,17.05
2023-06-04T16:36:30.598Z,16.72
2023-06-04T16:38:57.820Z,16.86
2023-06-04T16:41:24.086Z,15.47
2023-06-04T16:43:50.468Z,16.33
2023-06-04T16:46:16.818Z,15.47
2023-06-04T16:48:43.256Z,14.94
2023-06-04T16:51:09.687Z,14.55
2023-06-04T16:53:36.027Z,14.65
2023-06-04T16:56:02.497Z,14.73
2023-06-04T16:58:28.785Z,14.46
2023-06-04T17:00:55.249Z,14.71
2023-06-04T17:03:21.902Z,14.53
2023-06-04T17:05:48.385Z,14.40
2023-06-04T17:08:14.713Z,13.65
2023-06-04T17:10:41.054Z,14.11
2023-06-04T17:13:07.441Z,13.84
2023-06-04T17:15:33.892Z,13.63
2023-06-04T17:18:00.292Z,14.32
2023-06-04T17:20:27.474Z,14.43
2023-06-04T17:22:53.876Z,15.73
2023-06-04T17:25:20.238Z,15.73
2023-06-04T17:27:46.589Z,15.78
2023-06-04T17:30:13.172Z,15.53
2023-06-04T17:32:39.552Z,15.39
2023-06-04T17:35:06.611Z,15.15
2023-06-04T17:37:32.954Z,16.11
2023-06-04T17:39:59.338Z,16.26
2023-06-04T17:42:25.706Z,16.86
2023-06-04T17:44:52.229Z,16.72
2023-06-04T17:47:18.664Z,16.53
2023-06-04T17:49:45.388Z,16.76
2023-06-04T17:52:11.760Z,17.18
2023-06-04T17:54:38.228Z,17.26
2023-06-04T17:57:04.808Z,17.05
2023-06-04T17:59:31.376Z,17.56
2023-06-04T18:01:57.761Z,17.73
2023-06-04T18:04:24.183Z,17.37
2023-06-04T18:06:50.724Z,17.26
2023-06-04T18:09:17.087Z,17.21
2023-06-04T18:11:43.428Z,17.33
2023-06-04T18:14:09.847Z,16.96
2023-06-04T18:16:36.410Z,17.65
2023-06-04T18:19:02.779Z,17.82
2023-06-04T18:21:29.173Z,17.70
2023-06-04T18:23:55.597Z,17.26
2023-06-04T18:26:22.021Z,17.61
2023-06-04T18:28:48.458Z,17.47
2023-06-04T18:31:14.961Z,18.21
2023-06-04T18:33:54.499Z,18.22
2023-06-04T18:36:21.008Z,18.23
2023-06-04T18:38:47.467Z,17.88
2023-06-04T18:41:14.496Z,17.96
2023-06-04T18:43:40.837Z,18.50
2023-06-04T18:46:07.489Z,18.85
2023-06-04T18:48:33.991Z,19.65
2023-06-04T18:51:00.350Z,19.80
2023-06-04T18:53:26.986Z,20.52
2023-06-04T18:55:53.311Z,20.77
2023-06-04T18:58:19.790Z,21.50
2023-06-04T19:00:46.206Z,21.58
2023-06-04T19:03:12.769Z,22.22
2023-06-04T19:05:39.115Z,22.91
2023-06-04T19:08:05.716Z,23.42
2023-06-04T19:10:32.149Z,23.35
2023-06-04T19:12:58.494Z,24.16
2023-06-04T19:15:25.032Z,24.36
2023-06-04T19:17:51.512Z,24.85
2023-06-04T19:20:18.039Z,24.96
2023-06-04T19:22:44.534Z,25.50
2023-06-04T19:25:10.946Z,25.86
2023-06-04T19:27:37.476Z,25.79
2023-06-04T19:30:04.100Z,26.36
2023-06-04T19:32:30.485Z,26.83
2023-06-04T19:34:56.986Z,26.58
2023-06-04T19:37:23.357Z,26.86
2023-06-04T19:39:49.824Z,27.40
2023-06-04T19:42:16.157Z,27.86
2023-06-04T19:44:42.537Z,27.99
2023-06-04T19:47:09.015Z,27.99
2023-06-04T19:49:35.394Z,28.20
2023-06-04T19:52:01.790Z,28.44
2023-06-04T19:54:28.146Z,28.44
2023-06-04T19:56:54.511Z,28.45
2023-06-04T19:59:20.925Z,28.41
2023-06-04T20:01:47.286Z,28.94
2023-06-04T20:04:13.850Z,28.91
2023-06-04T20:06:40.301Z,29.18
2023-06-04T20:09:06.763Z,28.82
2023-06-04T20:11:33.132Z,29.83
2023-06-04T20:13:59.688Z,29.82
2023-06-04T20:16:26.202Z,30.52
2023-06-04T20:18:52.763Z,31.22
2023-06-04T20:21:19.120Z,31.92
2023-06-04T20:23:45.500Z,31.85
2023-06-04T20:26:11.908Z,32.13
2023-06-04T20:28:38.236Z,32.12
2023-06-04T20:31:04.632Z,32.46
2023-06-04T20:33:31.075Z,32.64
2023-06-04T20:35:57.528Z,33.07
2023-06-04T20:38:23.856Z,32.97
2023-06-04T20:40:50.374Z,33.27
2023-06-04T20:43:16.818Z,33.20
2023-06-04T20:45:43.261Z,33.28
2023-06-04T20:48:09.874Z,33.69
2023-06-04T20:50:36.317Z,33.67
2023-06-04T20:53:02.699Z,34.04
2023-06-04T20:55:29.078Z,33.58
2023-06-04T20:57:55.433Z,34.37
2023-06-04T21:00:21.780Z,33.93
2023-06-04T21:02:48.269Z,34.74
2023-06-04T21:05:14.749Z,34.84
2023-06-04T21:07:41.095Z,34.46
2023-06-04T21:10:07.667Z,35.31
2023-06-04T21:12:34.003Z,34.75
2023-06-04T21:15:00.434Z,35.22
2023-06-04T21:17:26.861Z,35.75
2023-06-04T21:19:53.291Z,35.04
2023-06-04T21:22:19.666Z,35.67
2023-06-04T21:24:46.135Z,35.16
2023-06-04T21:27:12.626Z,36.66
2023-06-04T21:29:38.989Z,37.45
2023-06-04T21:32:05.850Z,36.98
2023-06-04T21:34:32.249Z,37.15
2023-06-04T21:36:58.604Z,36.84
2023-06-04T21:39:25.038Z,36.71
2023-06-04T21:41:51.388Z,37.28
2023-06-04T21:44:17.733Z,38.45
2023-06-04T21:46:44.524Z,37.67
2023-06-04T21:49:10.842Z,37.83
2023-06-04T21:51:39.932Z,38.36
2023-06-04T21:54:06.417Z,38.89
2023-06-04T21:56:32.738Z,39.58
2023-06-04T21:58:59.076Z,39.75
2023-06-04T22:01:25.476Z,39.47
2023-06-04T22:03:51.995Z,38.67
2023-06-04T22:06:18.479Z,38.69
2023-06-04T22:08:44.882Z,39.97
2023-06-04T22:11:11.565Z,38.82
2023-06-04T22:13:37.948Z,40.11
2023-06-04T22:16:05.319Z,39.25
2023-06-04T22:18:44.448Z,41.47
2023-06-04T22:21:18.119Z,39.41
2023-06-04T22:23:44.501Z,40.41
2023-06-04T22:26:15.869Z,39.91
2023-06-04T22:28:48.065Z,39.43
2023-06-04T22:31:14.419Z,40.10
2023-06-04T22:33:40.763Z,40.28
2023-06-04T22:36:07.811Z,39.99
2023-06-04T22:38:34.856Z,40.35
2023-06-04T22:41:01.293Z,40.61
2023-06-04T22:43:27.748Z,41.70
2023-06-04T22:45:54.149Z,40.81
2023-06-04T22:48:20.593Z,40.85
2023-06-04T22:50:47.013Z,40.12
2023-06-04T22:53:13.361Z,40.61
2023-06-04T22:55:39.844Z,40.84
2023-06-04T22:58:06.292Z,40.28
2023-06-04T23:00:32.657Z,40.43
2023-06-04T23:02:59.138Z,40.49
2023-06-04T23:05:25.549Z,40.90
2023-06-04T23:07:51.920Z,41.37
2023-06-04T23:10:18.254Z,41.76
2023-06-04T23:12:44.685Z,42.00
2023-06-04T23:15:20.841Z,42.12
2023-06-04T23:17:48.060Z,41.63
2023-06-04T23:20:14.686Z,42.50
2023-06-04T23:22:41.082Z,42.29
2023-06-04T23:25:07.998Z,42.14
2023-06-04T23:27:34.359Z,42.73
2023-06-04T23:30:01.036Z,43.01
2023-06-04T23:32:27.423Z,43.16
2023-06-04T23:34:53.852Z,43.90
2023-06-04T23:37:20.201Z,44.46
2023-06-04T23:39:46.578Z,46.94
2023-06-04T23:42:13.008Z,48.01
2023-06-04T23:44:39.436Z,45.30
2023-06-04T23:47:05.864Z,45.53
2023-06-04T23:49:32.304Z,45.00
2023-06-04T23:51:58.717Z,44.56
2023-06-04T23:54:25.067Z,45.42
2023-06-04T23:56:51.421Z,45.57
2023-06-04T23:59:18.116Z,45.49
